Terminal Aerodrome Forecast
Issued by NWS St Louis, MO

Home | Current Version | Previous Version | Text Only | Print | Product List | Glossary On
Versions: 1 2 3 4 5 6 7 8 9 10 11 12 13 14 15
417
FTUS43 KLSX 030520
TAFCOU
TAF
KCOU 030520Z 0306/0406 24015G25KT P6SM OVC020
     FM031000 27020G30KT P6SM OVC015
     FM031500 28018G28KT P6SM OVC025
     FM031900 29015G25KT P6SM BKN035
     FM040000 30012KT P6SM SCT035=

USA.gov is the U.S. government's official web portal to all federal, state and local government web resources and services.